createdAt,value
2024-04-23T00:04:03.759Z,1.0495
2024-04-23T00:09:10.216Z,0.9925
2024-04-23T00:14:16.731Z,0.9817
2024-04-23T00:19:23.478Z,1.5233
2024-04-23T00:24:30.019Z,1.3841
2024-04-23T00:29:38.798Z,1.2592
2024-04-23T00:34:43.109Z,1.0403
2024-04-23T00:39:54.928Z,1.3986
2024-04-23T00:45:01.331Z,1.5803
2024-04-23T00:50:08.036Z,0.7849
2024-04-23T00:55:09.457Z,1.1804
2024-04-23T01:00:15.866Z,1.5907
2024-04-23T01:05:22.320Z,1.4143
2024-04-23T01:10:28.774Z,1.3307
2024-04-23T01:15:35.103Z,1.4766
2024-04-23T01:20:41.832Z,1.159
2024-04-23T01:25:48.529Z,1.3205
2024-04-23T01:30:54.714Z,1.1853
2024-04-23T01:36:01.334Z,1.4665
2024-04-23T01:41:07.585Z,1.5562
2024-04-23T01:46:14.188Z,1.2075
2024-04-23T01:51:20.483Z,1.65
2024-04-23T01:56:26.917Z,1.3107
2024-04-23T02:01:33.054Z,1.2991
2024-04-23T02:06:39.671Z,1.5117
2024-04-23T02:11:46.167Z,1.5114
2024-04-23T02:16:52.633Z,0.8672
2024-04-23T02:21:58.890Z,1.3086
2024-04-23T02:27:05.233Z,1.6059
2024-04-23T02:32:11.742Z,1.3044
2024-04-23T02:37:18.194Z,1.1123
2024-04-23T02:42:24.776Z,1.4706
2024-04-23T02:47:31.481Z,1.6306
2024-04-23T02:52:39.039Z,1.3406
2024-04-23T02:57:44.265Z,1.4863
2024-04-23T03:02:50.895Z,1.3193
2024-04-23T03:07:57.371Z,1.6371
2024-04-23T03:13:03.688Z,1.3922
2024-04-23T03:18:10.052Z,1.2688
2024-04-23T03:23:16.448Z,1.5067
2024-04-23T03:28:22.775Z,1.4097
2024-04-23T03:33:29.329Z,1.2846
2024-04-23T03:38:35.625Z,1.2523
2024-04-23T03:43:42.036Z,1.0866
2024-04-23T03:48:48.343Z,1.5451
2024-04-23T03:53:55.009Z,1.8995
2024-04-23T03:59:01.230Z,1.5666
2024-04-23T04:04:07.808Z,1.3051
2024-04-23T04:09:14.480Z,1.72
2024-04-23T04:14:20.958Z,1.606
2024-04-23T04:19:27.387Z,1.2583
2024-04-23T04:24:33.746Z,1.9093
2024-04-23T04:29:40.281Z,2.1114
2024-04-23T04:34:46.928Z,1.8408
2024-04-23T04:39:53.523Z,1.4615
2024-04-23T04:45:00.150Z,1.5914
2024-04-23T04:50:06.456Z,1.4509
2024-04-23T04:55:12.951Z,1.596
2024-04-23T05:00:19.393Z,1.4298
2024-04-23T05:05:25.671Z,1.5013
2024-04-23T05:10:32.292Z,1.4287
2024-04-23T05:15:39.106Z,1.3875
2024-04-23T05:20:45.343Z,1.8702
2024-04-23T05:25:52.066Z,1.7927
2024-04-23T05:30:58.569Z,1.3734
2024-04-23T05:36:05.184Z,1.4529
2024-04-23T05:41:11.770Z,1.5477
2024-04-23T05:46:18.321Z,1.3243
2024-04-23T05:51:24.993Z,1.4198
2024-04-23T05:56:31.850Z,1.4817
2024-04-23T06:01:38.226Z,1.1795
2024-04-23T06:06:44.907Z,1.1958
2024-04-23T06:11:51.547Z,1.0966
2024-04-23T06:16:58.318Z,1.1901
2024-04-23T06:22:04.768Z,1.3897
2024-04-23T06:27:11.508Z,1.2168
2024-04-23T06:32:18.473Z,1.5517
2024-04-23T06:37:24.968Z,1.5363
2024-04-23T06:42:31.769Z,1.1972
2024-04-23T06:47:38.548Z,1.0457
2024-04-23T06:52:45.331Z,1.3862
2024-04-23T06:57:52.207Z,1.1822
2024-04-23T07:02:59.007Z,1.2919
2024-04-23T07:08:05.764Z,1.046
2024-04-23T07:13:12.561Z,0.9998
2024-04-23T07:18:19.654Z,1.3356
2024-04-23T07:23:26.336Z,1.1208
2024-04-23T07:28:32.925Z,1.3884
2024-04-23T07:33:39.903Z,1.1326
2024-04-23T07:38:46.442Z,1.379
2024-04-23T07:43:52.887Z,1.332
2024-04-23T07:48:59.699Z,1.1544
2024-04-23T07:54:06.524Z,1.1967
2024-04-23T07:59:13.148Z,1.0074
2024-04-23T08:04:19.800Z,1.3116
2024-04-23T08:09:26.342Z,1.3119
2024-04-23T08:14:33.144Z,1.113
2024-04-23T08:19:41.045Z,1.1289
2024-04-23T08:24:46.908Z,0.7827
2024-04-23T08:29:53.852Z,1.4238
2024-04-23T08:35:00.903Z,1.0403
2024-04-23T08:40:07.495Z,1.0826
2024-04-23T08:45:14.129Z,1.3504
2024-04-23T08:55:27.630Z,0.9353
2024-04-23T09:00:38.434Z,1.209
2024-04-23T09:05:41.491Z,0.9095
2024-04-23T09:10:48.625Z,1.0359
2024-04-23T09:15:55.555Z,1.4722
2024-04-23T09:21:02.722Z,1.1571
2024-04-23T09:26:08.871Z,0.9887
2024-04-23T09:31:15.711Z,0.8204
2024-04-23T09:36:22.279Z,0.9256
2024-04-23T09:41:29.555Z,0.7205
2024-04-23T09:46:36.067Z,1.1254
2024-04-23T09:51:42.923Z,1.0152
2024-04-23T09:56:49.812Z,0.9468
2024-04-23T10:01:56.701Z,1.0308
2024-04-23T10:07:03.306Z,0.8468
2024-04-23T10:12:10.104Z,1.1521
2024-04-23T10:17:16.913Z,0.9101
2024-04-23T10:22:23.562Z,0.8364
2024-04-23T10:27:30.194Z,0.8048
2024-04-23T10:32:37.320Z,0.868
2024-04-23T10:37:43.968Z,0.9943
2024-04-23T10:42:50.840Z,0.7733
2024-04-23T10:47:59.441Z,0.9522
2024-04-23T10:53:03.996Z,0.805
2024-04-23T10:58:10.665Z,1.0523
2024-04-23T11:03:17.911Z,0.8208
2024-04-23T11:08:24.413Z,0.9207
2024-04-23T11:13:31.337Z,0.7524
2024-04-23T11:18:38.376Z,0.7156
2024-04-23T11:23:44.944Z,1.0313
2024-04-23T11:28:51.633Z,1.1418
2024-04-23T11:33:58.450Z,0.705
2024-04-23T11:39:05.127Z,1.1154
2024-04-23T11:44:12.055Z,1.305
2024-04-23T11:49:18.660Z,0.642
2024-04-23T11:54:25.494Z,0.926
2024-04-23T11:59:32.687Z,0.9418
2024-04-23T12:04:42.974Z,1.0104
2024-04-23T12:09:46.362Z,0.742
2024-04-23T12:14:53.127Z,1.5786
2024-04-23T12:20:00.124Z,0.763
2024-04-23T12:25:06.764Z,1.326
2024-04-23T12:30:16.339Z,0.9577
2024-04-23T12:35:20.626Z,1.1208
2024-04-23T12:40:32.753Z,0.9998
2024-04-23T12:45:34.534Z,0.9735
2024-04-23T12:50:41.140Z,0.8735
2024-04-23T12:55:47.811Z,1.3208
2024-04-23T13:00:54.623Z,1.0893
2024-04-23T13:06:01.174Z,1.0103
2024-04-23T13:11:08.192Z,1.0156
2024-04-23T13:16:14.900Z,0.7841
2024-04-23T13:21:21.878Z,0.7578
2024-04-23T13:26:29.058Z,1.1893
2024-04-23T13:31:35.799Z,0.8683
2024-04-23T13:36:42.532Z,0.8472
2024-04-23T13:41:56.161Z,0.6894
2024-04-23T13:46:56.518Z,1.2735
2024-04-23T13:52:05.711Z,1.0051
2024-04-23T13:57:12.374Z,0.8052
2024-04-23T14:02:19.271Z,1.0894
2024-04-23T14:07:30.958Z,0.6105
2024-04-23T14:12:32.871Z,0.9578
2024-04-23T14:17:39.892Z,0.7894
2024-04-23T14:22:46.939Z,1.0841
2024-04-23T14:27:54.001Z,0.6999
2024-04-23T14:33:00.933Z,0.8789
2024-04-23T14:38:07.809Z,1.0999
2024-04-23T14:43:15.002Z,0.9947
2024-04-23T14:48:22.272Z,0.6842
2024-04-23T14:53:28.876Z,0.8631
2024-04-23T14:58:35.863Z,0.9684
2024-04-23T15:03:42.664Z,0.7999
2024-04-23T15:08:49.709Z,0.8052
2024-04-23T15:13:56.612Z,0.8999
2024-04-23T15:19:03.693Z,0.7052
2024-04-23T15:24:10.607Z,1.0947
2024-04-23T15:29:17.978Z,0.7263
2024-04-23T15:34:24.748Z,0.7421
2024-04-23T15:39:31.862Z,0.5526
2024-04-23T15:44:38.343Z,0.7105
2024-04-23T15:49:45.442Z,0.5947
2024-04-23T15:54:52.526Z,0.6631
2024-04-23T15:59:59.458Z,0.8263
2024-04-23T16:05:06.746Z,0.7052
2024-04-23T16:10:12.987Z,0.5579
2024-04-23T16:15:19.717Z,0.7894
2024-04-23T16:20:26.383Z,0.8789
2024-04-23T16:25:32.851Z,0.5947
2024-04-23T16:30:39.561Z,0.6
2024-04-23T16:35:46.374Z,0.9789
2024-04-23T16:40:53.288Z,0.7473
2024-04-23T16:46:00.991Z,0.8052
2024-04-23T16:51:07.285Z,1.2999
2024-04-23T16:56:14.553Z,0.6579
2024-04-23T17:01:21.287Z,0.8947
2024-04-23T17:06:28.017Z,0.7999
2024-04-23T17:11:34.963Z,0.6631
2024-04-23T17:16:41.727Z,0.7789
2024-04-23T17:21:48.511Z,0.4947
2024-04-23T17:26:55.316Z,0.6052
2024-04-23T17:32:12.384Z,0.4526
2024-04-23T17:37:13.826Z,0.6526
2024-04-23T17:42:15.486Z,0.6894
2024-04-23T17:47:22.094Z,0.6578
2024-04-23T17:52:28.527Z,0.4526
2024-04-23T17:57:35.436Z,0.5789
2024-04-23T18:02:42.153Z,0.4526
2024-04-23T18:07:48.923Z,0.642
2024-04-23T18:12:55.422Z,0.7315
2024-04-23T18:18:02.107Z,0.7736
2024-04-23T18:23:08.863Z,0.4999
2024-04-23T18:28:15.341Z,0.8472
2024-04-23T18:33:21.941Z,0.6841
2024-04-23T18:38:28.741Z,0.7157
2024-04-23T18:43:34.937Z,0.7735
2024-04-23T18:48:41.723Z,0.5315
2024-04-23T18:53:48.357Z,0.3789
2024-04-23T18:58:54.996Z,0.6367
2024-04-23T19:04:01.951Z,0.6261
2024-04-23T19:09:08.680Z,0.563
2024-04-23T19:14:17.120Z,0.5945
2024-04-23T19:19:21.655Z,0.4788
2024-04-23T19:24:28.404Z,0.9838
2024-04-23T19:29:35.082Z,0.5577
2024-04-23T19:34:41.789Z,0.5576
2024-04-23T19:39:48.418Z,2.341
2024-04-23T19:44:55.388Z,1.9517
2024-04-23T19:50:01.946Z,1.6361
2024-04-23T19:55:08.719Z,1.5569
2024-04-23T20:00:15.435Z,1.5723
2024-04-23T20:05:22.063Z,1.2355
2024-04-23T20:10:28.674Z,1.53
2024-04-23T20:15:35.416Z,0.9624
2024-04-23T20:20:42.340Z,0.9414
2024-04-23T20:25:49.148Z,0.7679
2024-04-23T20:30:55.769Z,0.8205
2024-04-23T20:36:02.593Z,0.7469
2024-04-23T20:41:09.489Z,0.7731
2024-04-23T20:46:16.093Z,0.71
2024-04-23T20:51:22.529Z,0.6943
2024-04-23T20:56:29.376Z,0.5628
2024-04-23T21:01:35.835Z,0.7311
2024-04-23T21:06:42.794Z,0.6469
2024-04-23T21:11:49.365Z,0.7888
2024-04-23T21:16:55.855Z,0.6994
2024-04-23T21:22:02.512Z,1.0832
2024-04-23T21:27:09.046Z,1.0304
2024-04-23T21:32:15.802Z,0.7203
2024-04-23T21:37:22.350Z,1.2724
2024-04-23T21:42:35.680Z,1.1672
2024-04-23T21:47:35.942Z,1.1933
2024-04-23T21:52:43.011Z,1.0145
2024-04-23T21:57:48.542Z,0.7255
2024-04-23T22:02:55.471Z,1.0358
2024-04-23T22:08:02.729Z,1.2251
2024-04-23T22:13:08.748Z,1.2093
2024-04-23T22:18:15.662Z,1.3037
2024-04-23T22:23:22.352Z,1.1458
2024-04-23T22:28:29.001Z,1.0353
2024-04-23T22:33:35.725Z,1.3875
2024-04-23T22:38:42.204Z,1.3823
2024-04-23T22:43:48.957Z,1.2613
2024-04-23T22:48:55.562Z,1.5922
2024-04-23T22:54:01.834Z,1.1138
2024-04-23T22:59:08.638Z,1.2342
2024-04-23T23:04:15.205Z,1.4336
2024-04-23T23:09:22.020Z,1.5855
2024-04-23T23:14:28.220Z,1.3911
2024-04-23T23:19:34.913Z,1.5589
2024-04-23T23:24:41.421Z,1.4167
2024-04-23T23:29:48.092Z,1.3593
2024-04-23T23:34:54.684Z,1.4378
2024-04-23T23:40:00.946Z,1.6789
2024-04-23T23:45:07.639Z,1.3268
2024-04-23T23:50:15.088Z,1.4676
2024-04-23T23:55:20.578Z,2.0282
